createdAt,value
2023-03-07T00:02:19.816Z,5.74
2023-03-07T00:04:47.613Z,5.14
2023-03-07T00:07:15.449Z,5.68
2023-03-07T00:09:43.148Z,5.45
2023-03-07T00:12:10.869Z,5.49
2023-03-07T00:14:38.688Z,5.37
2023-03-07T00:17:06.481Z,4.38
2023-03-07T00:19:34.171Z,4.63
2023-03-07T00:22:01.843Z,4.87
2023-03-07T00:24:29.606Z,4.79
2023-03-07T00:26:57.354Z,4.74
2023-03-07T00:29:25.182Z,4.14
2023-03-07T00:31:52.874Z,3.69
2023-03-07T00:34:20.690Z,3.93
2023-03-07T00:36:48.428Z,4.39
2023-03-07T00:39:16.201Z,4.01
2023-03-07T00:41:43.953Z,4.00
2023-03-07T00:44:11.692Z,4.46
2023-03-07T00:46:39.374Z,4.59
2023-03-07T00:49:07.718Z,4.99
2023-03-07T00:51:35.417Z,4.85
2023-03-07T00:54:04.113Z,4.61
2023-03-07T00:56:31.977Z,4.43
2023-03-07T00:58:59.744Z,4.04
2023-03-07T01:01:27.584Z,4.53
2023-03-07T01:03:56.287Z,4.88
2023-03-07T01:06:25.829Z,4.65
2023-03-07T01:08:56.830Z,4.68
2023-03-07T01:11:25.187Z,4.38
2023-03-07T01:13:55.697Z,4.65
2023-03-07T01:16:28.801Z,3.88
2023-03-07T01:18:58.529Z,3.60
2023-03-07T01:21:31.954Z,3.64
2023-03-07T01:24:03.049Z,4.10
2023-03-07T01:26:31.514Z,4.47
2023-03-07T01:29:01.170Z,4.30
2023-03-07T01:31:30.735Z,3.26
2023-03-07T01:33:59.479Z,3.73
2023-03-07T01:36:30.368Z,3.84
2023-03-07T01:39:06.867Z,3.81
2023-03-07T01:41:37.378Z,4.20
2023-03-07T01:44:15.789Z,4.56
2023-03-07T01:46:45.229Z,5.27
2023-03-07T01:49:38.801Z,5.16
2023-03-07T01:52:19.318Z,5.37
2023-03-07T01:54:54.606Z,5.58
2023-03-07T01:57:25.698Z,4.76
2023-03-07T01:59:55.416Z,5.44
2023-03-07T02:02:23.398Z,4.37
2023-03-07T02:05:16.546Z,4.48
2023-03-07T02:07:46.634Z,4.52
2023-03-07T02:10:15.891Z,4.53
2023-03-07T02:12:43.649Z,4.68
2023-03-07T02:15:12.741Z,4.65
2023-03-07T02:17:41.016Z,4.58
2023-03-07T02:20:14.542Z,4.79
2023-03-07T02:22:42.341Z,4.95
2023-03-07T02:25:31.677Z,5.34
2023-03-07T02:27:59.910Z,5.32
2023-03-07T02:30:27.926Z,5.78
2023-03-07T02:32:56.019Z,5.53
2023-03-07T02:35:24.919Z,5.78
2023-03-07T02:37:57.792Z,5.70
2023-03-07T02:40:26.292Z,5.58
2023-03-07T02:42:54.919Z,5.37
2023-03-07T02:45:22.727Z,5.52
2023-03-07T02:47:50.497Z,5.45
2023-03-07T02:50:19.692Z,5.87
2023-03-07T02:52:52.059Z,5.83
2023-03-07T02:55:19.909Z,6.02
2023-03-07T02:57:57.646Z,6.30
2023-03-07T03:00:25.638Z,5.87
2023-03-07T03:02:53.513Z,5.27
2023-03-07T03:05:21.526Z,5.56
2023-03-07T03:07:49.406Z,6.06
2023-03-07T03:10:17.710Z,6.28
2023-03-07T03:12:45.616Z,6.28
2023-03-07T03:15:13.347Z,6.40
2023-03-07T03:17:41.272Z,6.87
2023-03-07T03:20:11.768Z,6.72
2023-03-07T03:22:40.428Z,6.64
2023-03-07T03:25:10.057Z,6.46
2023-03-07T03:27:39.261Z,6.81
2023-03-07T03:30:08.065Z,7.08
2023-03-07T03:32:39.647Z,6.90
2023-03-07T03:35:09.796Z,7.14
2023-03-07T03:37:37.839Z,6.64
2023-03-07T03:40:14.348Z,6.41
2023-03-07T03:42:44.091Z,6.08
2023-03-07T03:45:14.786Z,6.50
2023-03-07T03:47:42.733Z,6.93
2023-03-07T03:50:11.192Z,7.19
2023-03-07T03:52:39.882Z,6.75
2023-03-07T03:55:08.331Z,7.09
2023-03-07T03:57:36.133Z,6.61
2023-03-07T04:00:05.583Z,6.46
2023-03-07T04:02:40.091Z,6.33
2023-03-07T04:05:11.905Z,6.50
2023-03-07T04:07:39.711Z,6.85
2023-03-07T04:10:08.354Z,6.73
2023-03-07T04:12:36.730Z,6.91
2023-03-07T04:15:07.370Z,6.74
2023-03-07T04:17:35.592Z,6.72
2023-03-07T04:20:04.889Z,6.65
2023-03-07T04:22:33.558Z,6.33
2023-03-07T04:25:01.339Z,6.28
2023-03-07T04:27:30.216Z,5.20
2023-03-07T04:29:58.228Z,6.17
2023-03-07T04:32:26.893Z,4.58
2023-03-07T04:34:54.750Z,5.41
2023-03-07T04:37:22.492Z,5.04
2023-03-07T04:39:50.245Z,5.41
2023-03-07T04:42:18.085Z,5.66
2023-03-07T04:44:47.073Z,5.86
2023-03-07T04:47:14.932Z,5.92
2023-03-07T04:49:42.778Z,6.18
2023-03-07T04:52:10.670Z,6.15
2023-03-07T04:54:38.748Z,6.38
2023-03-07T04:57:06.554Z,6.30
2023-03-07T04:59:39.180Z,6.29
2023-03-07T05:02:09.156Z,6.16
2023-03-07T05:04:37.013Z,6.20
2023-03-07T05:07:05.389Z,6.12
2023-03-07T05:09:33.708Z,6.22
2023-03-07T05:12:01.508Z,6.26
2023-03-07T05:14:30.245Z,5.73
2023-03-07T05:16:58.120Z,5.74
2023-03-07T05:19:26.622Z,5.69
2023-03-07T05:21:54.593Z,5.72
2023-03-07T05:24:22.942Z,5.98
2023-03-07T05:26:50.678Z,5.79
2023-03-07T05:29:19.307Z,6.26
2023-03-07T05:31:47.288Z,5.70
2023-03-07T05:34:16.077Z,5.96
2023-03-07T05:36:44.532Z,5.52
2023-03-07T05:39:12.798Z,6.00
2023-03-07T05:41:40.559Z,5.82
2023-03-07T05:44:08.650Z,6.11
2023-03-07T05:46:36.531Z,6.05
2023-03-07T05:49:05.498Z,5.92
2023-03-07T05:51:33.253Z,6.07
2023-03-07T05:54:01.325Z,5.57
2023-03-07T05:56:30.221Z,6.08
2023-03-07T05:58:58.307Z,6.31
2023-03-07T06:01:26.740Z,6.49
2023-03-07T06:03:55.050Z,6.61
2023-03-07T06:06:22.847Z,6.46
2023-03-07T06:08:50.655Z,6.09
2023-03-07T06:11:19.081Z,6.07
2023-03-07T06:13:46.827Z,6.11
2023-03-07T06:16:15.082Z,5.80
2023-03-07T06:18:43.309Z,6.02
2023-03-07T06:21:11.153Z,6.34
2023-03-07T06:23:43.328Z,6.00
2023-03-07T06:26:15.066Z,6.16
2023-03-07T06:28:45.440Z,5.53
2023-03-07T06:31:16.166Z,5.54
2023-03-07T06:33:44.609Z,5.23
2023-03-07T06:36:14.591Z,5.77
2023-03-07T06:38:44.950Z,5.78
2023-03-07T06:41:13.027Z,5.88
2023-03-07T06:43:41.228Z,6.17
2023-03-07T06:46:09.110Z,6.34
2023-03-07T06:48:40.943Z,6.59
2023-03-07T06:51:13.902Z,6.79
2023-03-07T06:53:43.868Z,7.07
2023-03-07T06:56:11.730Z,6.89
2023-03-07T06:58:40.309Z,6.85
2023-03-07T07:01:18.727Z,7.27
2023-03-07T07:03:49.134Z,7.87
2023-03-07T07:06:17.525Z,8.02
2023-03-07T07:08:45.270Z,8.24
2023-03-07T07:11:13.522Z,8.33
2023-03-07T07:13:41.631Z,8.70
2023-03-07T07:16:11.411Z,8.82
2023-03-07T07:18:40.714Z,9.01
2023-03-07T07:21:09.924Z,8.92
2023-03-07T07:23:37.997Z,8.31
2023-03-07T07:26:06.925Z,8.44
2023-03-07T07:28:36.540Z,8.78
2023-03-07T07:31:06.703Z,9.11
2023-03-07T07:33:35.426Z,9.74
2023-03-07T07:36:04.462Z,10.45
2023-03-07T07:38:34.724Z,10.37
2023-03-07T07:41:02.541Z,10.44
2023-03-07T07:43:30.421Z,11.40
2023-03-07T07:46:24.618Z,11.37
2023-03-07T07:48:52.638Z,11.48
2023-03-07T07:51:20.447Z,11.62
2023-03-07T07:53:48.261Z,10.94
2023-03-07T07:56:16.327Z,12.16
2023-03-07T07:58:44.173Z,12.16
2023-03-07T08:01:21.369Z,11.99
2023-03-07T08:03:49.298Z,11.77
2023-03-07T08:06:21.249Z,11.67
2023-03-07T08:08:49.242Z,12.52
2023-03-07T08:11:17.418Z,12.74
2023-03-07T08:13:45.199Z,12.20
2023-03-07T08:16:17.598Z,12.73
2023-03-07T08:18:52.541Z,13.03
2023-03-07T08:21:21.247Z,12.99
2023-03-07T08:23:48.970Z,13.30
2023-03-07T08:26:17.712Z,13.21
2023-03-07T08:28:45.521Z,13.05
2023-03-07T08:31:15.060Z,13.97
2023-03-07T08:33:43.108Z,13.83
2023-03-07T08:36:10.873Z,13.91
2023-03-07T08:38:38.815Z,13.48
2023-03-07T08:41:07.200Z,13.74
2023-03-07T08:43:36.605Z,13.90
2023-03-07T08:46:04.490Z,14.14
2023-03-07T08:48:32.272Z,14.30
2023-03-07T08:51:12.155Z,13.90
2023-03-07T08:53:40.012Z,14.21
2023-03-07T08:56:08.433Z,14.19
2023-03-07T08:58:36.471Z,14.23
2023-03-07T09:01:04.449Z,14.53
2023-03-07T09:03:32.414Z,14.06
2023-03-07T09:06:00.351Z,14.24
2023-03-07T09:08:28.135Z,14.59
2023-03-07T09:10:55.845Z,14.35
2023-03-07T09:13:23.540Z,14.32
2023-03-07T09:15:51.450Z,14.21
2023-03-07T09:18:19.173Z,13.70
2023-03-07T09:20:46.989Z,14.07
2023-03-07T09:23:14.682Z,14.28
2023-03-07T09:25:42.412Z,13.35
2023-03-07T09:28:10.103Z,12.66
2023-03-07T09:30:37.968Z,12.89
2023-03-07T09:33:05.681Z,13.16
2023-03-07T09:35:33.464Z,13.93
2023-03-07T09:38:01.160Z,13.44
2023-03-07T09:40:28.973Z,12.89
2023-03-07T09:42:56.614Z,13.27
2023-03-07T09:45:31.840Z,13.05
2023-03-07T09:48:48.000Z,12.87
2023-03-07T09:51:25.630Z,13.16
2023-03-07T09:53:53.928Z,13.39
2023-03-07T09:56:24.961Z,13.08
2023-03-07T09:58:59.203Z,12.92
2023-03-07T10:01:27.730Z,12.95
2023-03-07T10:04:05.929Z,13.83
2023-03-07T10:06:41.296Z,14.79
2023-03-07T10:09:18.440Z,15.00
2023-03-07T10:11:46.383Z,13.88
2023-03-07T10:14:17.287Z,14.52
2023-03-07T10:16:59.305Z,14.20
2023-03-07T10:19:49.168Z,14.02
2023-03-07T10:22:32.040Z,14.05
2023-03-07T10:25:21.949Z,14.60
2023-03-07T10:27:49.684Z,14.56
2023-03-07T10:30:18.778Z,14.17
2023-03-07T10:32:55.813Z,13.25
2023-03-07T10:35:24.758Z,13.57
2023-03-07T10:38:29.829Z,13.92
2023-03-07T10:41:00.064Z,13.67
2023-03-07T10:43:30.228Z,13.52
2023-03-07T10:46:27.712Z,13.93
2023-03-07T10:49:01.547Z,13.53
2023-03-07T10:52:00.620Z,13.46
2023-03-07T10:54:36.138Z,13.39
2023-03-07T10:57:13.300Z,13.77
2023-03-07T10:59:43.781Z,13.86
2023-03-07T11:02:23.708Z,14.01
2023-03-07T11:04:52.176Z,13.51
2023-03-07T11:07:28.627Z,13.56
2023-03-07T11:09:57.551Z,14.19
2023-03-07T11:12:26.392Z,14.61
2023-03-07T11:14:58.991Z,14.84
2023-03-07T11:17:43.183Z,14.52
2023-03-07T11:20:30.913Z,15.28
2023-03-07T11:23:16.909Z,14.95
2023-03-07T11:25:44.898Z,14.36
2023-03-07T11:28:33.865Z,14.45
2023-03-07T11:31:30.946Z,14.60
2023-03-07T11:34:28.114Z,14.80
2023-03-07T11:36:57.478Z,14.29
2023-03-07T11:39:31.368Z,14.82
2023-03-07T11:42:05.684Z,14.46
2023-03-07T11:44:34.734Z,14.40
2023-03-07T11:47:08.570Z,14.74
2023-03-07T11:49:36.234Z,14.88
2023-03-07T11:52:09.545Z,14.66
2023-03-07T11:54:55.210Z,15.17
2023-03-07T11:57:41.711Z,15.77
2023-03-07T12:00:33.630Z,14.69
2023-03-07T12:03:39.717Z,14.81
2023-03-07T12:06:20.418Z,14.66
2023-03-07T12:09:06.258Z,14.32
2023-03-07T12:12:04.569Z,14.51
2023-03-07T12:14:50.238Z,14.71
2023-03-07T12:17:50.012Z,14.31
2023-03-07T12:20:28.272Z,14.62
2023-03-07T12:23:07.690Z,15.77
2023-03-07T12:25:39.384Z,14.32
2023-03-07T12:28:32.184Z,14.36
2023-03-07T12:31:17.075Z,14.58
2023-03-07T12:33:52.369Z,15.43
2023-03-07T12:36:35.412Z,15.95
2023-03-07T12:39:32.761Z,15.52
2023-03-07T12:42:10.337Z,15.01
2023-03-07T12:44:42.621Z,15.64
2023-03-07T12:47:28.205Z,15.27
2023-03-07T12:50:03.574Z,14.71
2023-03-07T12:52:34.420Z,15.01
2023-03-07T12:55:14.201Z,15.31
2023-03-07T12:57:43.868Z,15.41
2023-03-07T13:00:12.934Z,15.83
2023-03-07T13:02:44.467Z,16.49
2023-03-07T13:05:21.423Z,15.25
2023-03-07T13:07:49.412Z,15.71
2023-03-07T13:10:22.014Z,15.70
2023-03-07T13:12:50.356Z,14.91
2023-03-07T13:15:18.024Z,15.19
2023-03-07T13:17:45.684Z,15.00
2023-03-07T13:20:19.035Z,15.83
2023-03-07T13:22:46.715Z,15.99
2023-03-07T13:25:20.389Z,16.36
2023-03-07T13:27:49.027Z,15.89
2023-03-07T13:30:28.799Z,15.30
2023-03-07T13:33:01.262Z,15.71
2023-03-07T13:35:39.158Z,16.04
2023-03-07T13:38:30.016Z,16.30
2023-03-07T13:40:59.126Z,15.91
2023-03-07T13:43:28.303Z,15.80
2023-03-07T13:46:01.954Z,16.03
2023-03-07T13:48:32.567Z,15.90
2023-03-07T13:51:00.344Z,15.40
2023-03-07T13:53:28.101Z,15.42
2023-03-07T13:56:25.168Z,15.63
2023-03-07T13:59:13.959Z,16.20
2023-03-07T14:01:45.263Z,16.33
2023-03-07T14:04:39.467Z,16.78
2023-03-07T14:07:16.886Z,16.87
2023-03-07T14:09:45.130Z,17.08
2023-03-07T14:12:31.405Z,16.73
2023-03-07T14:15:09.869Z,16.87
2023-03-07T14:18:02.287Z,16.58
2023-03-07T14:21:11.725Z,15.60
2023-03-07T14:24:00.943Z,15.27
2023-03-07T14:26:44.865Z,14.93
2023-03-07T14:29:14.680Z,15.72
2023-03-07T14:31:42.607Z,15.72
2023-03-07T14:34:27.187Z,15.20
2023-03-07T14:37:04.986Z,15.60
2023-03-07T14:39:52.909Z,14.10
2023-03-07T14:42:31.763Z,14.85
2023-03-07T14:45:05.291Z,13.97
2023-03-07T14:47:51.068Z,14.80
2023-03-07T14:50:28.688Z,14.40
2023-03-07T14:53:03.978Z,14.84
2023-03-07T14:55:35.921Z,15.08
2023-03-07T14:58:03.639Z,15.05
2023-03-07T15:00:33.937Z,14.73
2023-03-07T15:03:08.091Z,15.35
2023-03-07T15:05:52.604Z,14.39
2023-03-07T15:08:24.087Z,15.91
2023-03-07T15:11:04.417Z,16.10
2023-03-07T15:13:42.690Z,15.73
2023-03-07T15:16:12.640Z,16.37
2023-03-07T15:18:49.835Z,16.30
2023-03-07T15:21:22.928Z,16.22
2023-03-07T15:23:54.245Z,15.42
2023-03-07T15:26:26.753Z,15.30
2023-03-07T15:29:01.546Z,14.54
2023-03-07T15:31:30.837Z,13.72
2023-03-07T15:34:33.826Z,13.93
2023-03-07T15:37:24.445Z,13.94
2023-03-07T15:40:08.006Z,14.38
2023-03-07T15:42:55.653Z,13.59
2023-03-07T15:45:30.374Z,13.68
2023-03-07T15:47:58.883Z,13.84
2023-03-07T15:50:27.930Z,14.63
2023-03-07T15:53:19.580Z,15.07
2023-03-07T15:55:54.923Z,15.34
2023-03-07T15:58:22.951Z,15.49
2023-03-07T16:00:50.706Z,15.50
2023-03-07T16:03:29.518Z,15.29
2023-03-07T16:05:58.649Z,14.78
2023-03-07T16:08:27.656Z,14.64
2023-03-07T16:11:02.077Z,14.46
2023-03-07T16:13:32.266Z,14.52
2023-03-07T16:16:04.215Z,14.70
2023-03-07T16:18:32.115Z,14.77
2023-03-07T16:20:59.939Z,15.03
2023-03-07T16:23:31.056Z,14.81
2023-03-07T16:25:59.518Z,14.90
2023-03-07T16:28:27.726Z,14.98
2023-03-07T16:30:55.422Z,15.00
2023-03-07T16:33:23.159Z,14.76
2023-03-07T16:35:51.008Z,14.74
2023-03-07T16:38:18.776Z,14.90
2023-03-07T16:40:46.438Z,14.83
2023-03-07T16:43:36.665Z,14.76
2023-03-07T16:46:06.082Z,14.60
2023-03-07T16:48:33.865Z,13.93
2023-03-07T16:51:01.803Z,14.25
2023-03-07T16:53:29.609Z,14.19
2023-03-07T16:55:58.247Z,13.92
2023-03-07T16:58:28.343Z,14.23
2023-03-07T17:00:56.469Z,14.09
2023-03-07T17:03:24.570Z,13.93
2023-03-07T17:05:52.328Z,13.95
2023-03-07T17:08:20.110Z,13.74
2023-03-07T17:10:47.869Z,13.67
2023-03-07T17:13:17.018Z,13.63
2023-03-07T17:15:45.714Z,13.20
2023-03-07T17:18:13.521Z,13.02
2023-03-07T17:20:41.651Z,13.17
2023-03-07T17:23:09.457Z,13.40
2023-03-07T17:25:37.176Z,12.80
2023-03-07T17:28:07.810Z,12.92
2023-03-07T17:30:35.607Z,12.83
2023-03-07T17:33:03.412Z,12.13
2023-03-07T17:35:31.207Z,11.87
2023-03-07T17:37:58.923Z,11.46
2023-03-07T17:40:26.598Z,11.50
2023-03-07T17:42:55.138Z,11.33
2023-03-07T17:45:22.872Z,11.41
2023-03-07T17:47:54.092Z,10.73
2023-03-07T17:50:23.952Z,10.78
2023-03-07T17:52:54.985Z,11.27
2023-03-07T17:55:24.938Z,11.32
2023-03-07T17:57:52.797Z,11.16
2023-03-07T18:00:21.301Z,10.88
2023-03-07T18:02:49.398Z,10.69
2023-03-07T18:05:17.219Z,10.62
2023-03-07T18:07:45.145Z,10.91
2023-03-07T18:10:12.900Z,10.97
2023-03-07T18:12:40.683Z,11.35
2023-03-07T18:15:12.076Z,11.57
2023-03-07T18:17:47.865Z,11.55
2023-03-07T18:20:19.959Z,11.33
2023-03-07T18:22:47.734Z,11.47
2023-03-07T18:25:15.939Z,11.41
2023-03-07T18:27:44.109Z,10.95
2023-03-07T18:30:12.334Z,10.97
2023-03-07T18:32:40.128Z,10.23
2023-03-07T18:35:08.178Z,10.71
2023-03-07T18:37:36.551Z,10.33
2023-03-07T18:40:04.801Z,10.41
2023-03-07T18:42:33.020Z,10.53
2023-03-07T18:45:00.827Z,9.97
2023-03-07T18:47:28.592Z,9.19
2023-03-07T18:49:57.716Z,9.07
2023-03-07T18:52:25.517Z,9.66
2023-03-07T18:54:53.299Z,9.93
2023-03-07T18:57:21.050Z,10.12
2023-03-07T18:59:48.881Z,9.48
2023-03-07T19:02:16.632Z,10.31
2023-03-07T19:04:44.405Z,10.26
2023-03-07T19:07:12.115Z,10.40
2023-03-07T19:09:39.875Z,10.32
2023-03-07T19:12:07.609Z,9.72
2023-03-07T19:14:35.410Z,9.56
2023-03-07T19:17:03.300Z,9.42
2023-03-07T19:19:30.997Z,9.52
2023-03-07T19:21:58.670Z,9.63
2023-03-07T19:24:26.468Z,9.15
2023-03-07T19:26:54.210Z,9.14
2023-03-07T19:29:21.966Z,9.51
2023-03-07T19:31:49.905Z,9.45
2023-03-07T19:34:17.779Z,9.30
2023-03-07T19:36:45.448Z,9.52
2023-03-07T19:39:20.408Z,9.68
2023-03-07T19:41:48.301Z,8.69
2023-03-07T19:44:16.237Z,9.60
2023-03-07T19:46:46.413Z,9.00
2023-03-07T19:49:16.747Z,9.03
2023-03-07T19:51:44.523Z,9.28
2023-03-07T19:54:15.180Z,9.35
2023-03-07T19:56:44.514Z,9.63
2023-03-07T19:59:12.295Z,9.79
2023-03-07T20:01:40.106Z,9.57
2023-03-07T20:04:10.124Z,9.84
2023-03-07T20:06:38.862Z,9.47
2023-03-07T20:09:06.644Z,9.68
2023-03-07T20:11:34.849Z,8.36
2023-03-07T20:14:04.928Z,8.43
2023-03-07T20:16:33.497Z,8.06
2023-03-07T20:19:03.014Z,8.42
2023-03-07T20:21:30.784Z,8.74
2023-03-07T20:24:01.220Z,8.88
2023-03-07T20:26:31.711Z,9.16
2023-03-07T20:29:00.349Z,8.42
2023-03-07T20:31:28.313Z,8.64
2023-03-07T20:33:57.444Z,8.90
2023-03-07T20:36:26.690Z,8.60
2023-03-07T20:38:56.001Z,8.37
2023-03-07T20:41:25.250Z,8.16
2023-03-07T20:43:53.178Z,8.27
2023-03-07T20:46:21.823Z,7.92
2023-03-07T20:48:50.364Z,7.87
2023-03-07T20:51:19.841Z,7.31
2023-03-07T20:53:56.284Z,7.74
2023-03-07T20:56:25.118Z,7.73
2023-03-07T20:58:53.652Z,7.55
2023-03-07T21:01:21.647Z,7.53
2023-03-07T21:03:49.768Z,7.75
2023-03-07T21:06:17.615Z,7.27
2023-03-07T21:08:47.585Z,6.88
2023-03-07T21:11:17.088Z,7.18
2023-03-07T21:13:45.883Z,7.63
2023-03-07T21:16:23.250Z,7.18
2023-03-07T21:18:51.137Z,7.10
2023-03-07T21:21:20.618Z,6.79
2023-03-07T21:23:48.458Z,6.83
2023-03-07T21:26:16.962Z,7.35
2023-03-07T21:28:44.906Z,6.69
2023-03-07T21:31:12.601Z,6.88
2023-03-07T21:33:41.554Z,7.38
2023-03-07T21:36:10.821Z,6.86
2023-03-07T21:38:39.922Z,7.30
2023-03-07T21:41:07.700Z,7.25
2023-03-07T21:43:35.552Z,7.33
2023-03-07T21:46:05.096Z,6.82
2023-03-07T21:48:33.082Z,6.69
2023-03-07T21:51:00.931Z,6.94
2023-03-07T21:53:28.693Z,6.51
2023-03-07T21:55:58.376Z,6.11
2023-03-07T21:58:26.281Z,6.89
2023-03-07T22:00:57.472Z,6.81
2023-03-07T22:03:26.616Z,7.26
2023-03-07T22:05:56.880Z,7.32
2023-03-07T22:08:25.012Z,7.56
2023-03-07T22:11:00.535Z,7.18
2023-03-07T22:13:29.818Z,7.44
2023-03-07T22:16:01.736Z,6.69
2023-03-07T22:18:29.512Z,6.40
2023-03-07T22:20:57.268Z,6.34
2023-03-07T22:23:26.630Z,6.51
2023-03-07T22:25:54.428Z,6.90
2023-03-07T22:28:23.036Z,7.16
2023-03-07T22:30:51.908Z,6.91
2023-03-07T22:33:19.656Z,6.20
2023-03-07T22:35:56.174Z,6.16
2023-03-07T22:38:23.903Z,6.96
2023-03-07T22:40:51.683Z,6.45
2023-03-07T22:43:19.425Z,6.29
2023-03-07T22:45:49.462Z,6.11
2023-03-07T22:48:18.018Z,6.33
2023-03-07T22:50:45.780Z,6.19
2023-03-07T22:53:13.506Z,6.48
2023-03-07T22:55:42.360Z,6.33
2023-03-07T22:58:10.756Z,6.13
2023-03-07T23:00:42.701Z,5.70
2023-03-07T23:03:10.606Z,5.11
2023-03-07T23:05:38.498Z,6.04
2023-03-07T23:08:06.218Z,5.43
2023-03-07T23:10:33.999Z,4.88
2023-03-07T23:13:01.776Z,5.63
2023-03-07T23:15:29.864Z,5.47
2023-03-07T23:17:57.750Z,5.51
2023-03-07T23:20:26.294Z,5.08
2023-03-07T23:22:54.116Z,4.82
2023-03-07T23:25:22.012Z,5.66
2023-03-07T23:27:49.819Z,5.31
2023-03-07T23:30:17.870Z,5.11
2023-03-07T23:32:45.805Z,5.15
2023-03-07T23:35:13.681Z,5.43
2023-03-07T23:37:42.556Z,5.34
2023-03-07T23:40:12.008Z,5.34
2023-03-07T23:42:40.181Z,4.78
2023-03-07T23:45:08.659Z,4.83
2023-03-07T23:47:36.362Z,4.75
2023-03-07T23:50:04.394Z,5.08
2023-03-07T23:52:32.092Z,4.88
2023-03-07T23:54:59.825Z,4.68
2023-03-07T23:57:27.524Z,4.67
2023-03-07T23:59:55.212Z,4.62
